Rangpur, Bangladesh
Current Conditions -  °F | °C
As of 3:50 PM on Thursday 29 Jan 2015 (Local Time) from VGHS Reporting Station
Haze Haze  
Wind Chill: 81°   Ceiling: Unl
Heat Index: 81°   Visibility: 2.5mi
Dew Point: 57°   Wind: 9mph
Humidity: 45%   Direction: 330°NNW
Pressure: 29.91"   Gusts: NA
Location:  25.74°N, 89.25°E
Report Text: VGHS 290950Z 33008KT 4000 HZ SCT100 27/14 Q1013 NOSIG
Loading
Personal Weather Stations






























Interactive Weather Map New forecast layout! Learn more

10-Day Weather Forecast

Advertisements
Track Severe Weather on mobile